Latest Weather Observations for Normanton

IDQ60801

Issued at 11:32 pm EST Tuesday 26 May 2015 (issued every 30 minutes, with the page automatically refreshed every 10 minutes)

About weather observations | Map of weather stations | Latest weather observations for QLD | Other Formats
Station Details ID: 029063 Name: NORMANTON AIRPORT Lat: -17.69 Lon: 141.07 Height: 18.42 m
Data from the previous 72 hours. | See also: Recent months at Normanton
Date/Time
EST
Temp
°C
App
Temp
°C
Dew
Point
Rel
Hum
%
Delta-T
°C
Wind Press
QNH
hPa
Press
MSL
hPa
Rain
since 9 am
mm
Dir
 
Spd
km/h
Gust
km/h
Spd
kts
Gust
kts
26/11:30pm 24.6 22.3 11.9 45 7.2 S 15 17 8 9 1016.4 - 0.0
26/11:00pm 25.0 22.8 12.2 44 7.3 S 15 20 8 11 1016.4 - 0.0
26/10:30pm 26.1 24.3 12.2 42 8.0 SSE 13 19 7 10 1016.3 - 0.0
26/10:00pm 25.7 23.9 12.2 43 7.8 S 13 15 7 8 1016.3 - 0.0
26/09:30pm 26.1 24.3 12.2 42 8.0 S 13 15 7 8 1016.3 - 0.0
26/09:00pm 26.5 24.8 12.5 41 8.1 S 13 15 7 8 1016.3 1016.1 0.0
26/08:30pm 26.9 25.6 12.5 40 8.4 S 11 13 6 7 1016.1 - 0.0
26/08:00pm 27.5 26.5 12.3 39 8.8 SSE 9 11 5 6 1015.9 - 0.0
26/07:30pm 28.4 27.4 12.3 37 9.4 SSE 9 13 5 7 1015.5 - 0.0
26/07:00pm 29.0 28.0 12.4 36 9.7 SSE 9 13 5 7 1015.2 - 0.0
26/06:30pm 29.8 28.9 12.7 35 10.1 SSE 9 13 5 7 1015.0 - 0.0
26/06:00pm 31.3 29.6 12.6 31 11.1 SSE 13 19 7 10 1014.8 1014.7 0.0
26/05:30pm 32.0 30.0 12.8 31 11.4 SSE 15 22 8 12 1014.5 - 0.0
26/05:00pm 32.5 30.1 12.7 30 11.8 SSE 17 30 9 16 1014.2 - 0.0
26/04:30pm 33.0 30.7 13.1 30 12.0 SSE 17 30 9 16 1014.1 - 0.0
26/04:00pm 32.9 30.2 13.0 30 11.9 SSE 19 30 10 16 1014.2 - 0.0
26/03:30pm 32.9 30.8 13.5 30 11.7 SSE 17 30 9 16 1014.3 - 0.0
26/03:00pm 32.2 29.9 12.9 31 11.5 SSE 17 30 9 16 1014.7 1014.7 0.0
26/02:30pm 31.8 29.2 13.1 32 11.2 SSE 19 32 10 17 1015.1 - 0.0
26/02:00pm 32.3 30.7 14.0 33 11.1 SE 15 26 8 14 1015.6 - 0.0
26/01:30pm 32.3 31.2 14.4 33 10.9 ESE 13 24 7 13 1016.1 - 0.0
26/01:00pm 31.1 29.2 14.3 36 10.2 SE 17 26 9 14 1016.8 - 0.0
26/12:30pm 30.6 29.5 14.2 36 9.9 E 13 24 7 13 1017.4 - 0.0
26/12:00pm 30.4 28.9 15.3 40 9.3 SE 17 24 9 13 1017.8 1017.8 0.0
26/11:30am 29.4 28.1 14.8 41 8.9 E 15 24 8 13 1018.4 - 0.0
26/11:00am 29.1 27.5 14.9 42 8.6 E 17 28 9 15 1018.8 - 0.0
26/10:30am 28.5 26.7 15.4 45 8.0 ENE 19 30 10 16 1019.4 - 0.0
26/10:00am 27.5 25.7 15.5 48 7.3 E 19 30 10 16 1019.8 - 0.0
26/09:30am 26.1 24.0 15.2 51 6.6 E 20 32 11 17 1020.0 - 0.0
26/09:00am 25.3 23.3 15.0 53 6.2 E 19 32 10 17 1019.9 1019.8 0.0
26/08:30am 24.4 23.2 15.1 56 5.6 E 15 26 8 14 1019.8 - 0.0
26/08:00am 23.2 22.7 15.0 60 4.9 E 11 15 6 8 1019.7 - 0.0
26/07:30am 22.0 21.8 14.6 63 4.4 ESE 9 15 5 8 1019.6 - 0.0
26/07:00am 21.5 21.6 14.4 64 4.2 ESE 7 13 4 7 1019.3 - 0.0
26/06:30am 22.1 21.9 14.7 63 4.4 E 9 15 5 8 1018.9 - 0.0
26/06:00am 22.3 22.4 14.4 61 4.6 ESE 7 11 4 6 1018.7 1018.5 0.0
26/05:30am 23.3 23.1 14.6 58 5.1 E 9 13 5 7 1018.3 - 0.0
26/05:00am 23.8 23.2 14.5 56 5.5 E 11 20 6 11 1018.2 - 0.0
26/04:30am 24.5 23.5 14.6 54 5.9 E 13 22 7 12 1018.0 - 0.0
26/04:00am 24.8 23.8 14.6 53 6.1 E 13 20 7 11 1017.9 - 0.0
26/03:30am 25.2 23.7 14.3 50 6.5 ENE 15 24 8 13 1017.9 - 0.0
26/03:00am 25.2 24.7 14.9 52 6.2 ENE 11 17 6 9 1018.0 1017.9 0.0
26/02:30am 25.5 25.1 15.2 53 6.2 ENE 11 15 6 8 1018.1 - 0.0
26/02:00am 26.1 25.6 15.8 53 6.3 ENE 13 24 7 13 1018.2 - 0.0
26/01:30am 26.6 25.6 15.6 50 6.7 ENE 15 26 8 14 1018.2 - 0.0
26/01:00am 27.0 26.2 16.0 51 6.8 E 15 26 8 14 1018.4 - 0.0
26/12:30am 26.9 26.4 15.9 51 6.7 E 13 20 7 11 1018.5 - 0.0
26/12:00am 26.4 26.6 15.8 52 6.5 ESE 9 15 5 8 1018.4 1018.3 0.0
 
Date/Time
EST
Temp
°C
App
Temp
°C
Dew
Point
Rel
Hum
%
Delta-T
°C
Wind Press
QNH
hPa
Press
MSL
hPa
Rain
since 9 am
mm
Dir
 
Spd
km/h
Gust
km/h
Spd
kts
Gust
kts
25/11:30pm 26.6 26.7 15.6 50 6.7 ESE 9 15 5 8 1018.4 - 0.0
25/11:00pm 27.1 26.8 15.5 49 7.1 SE 11 17 6 9 1018.5 - 0.0
25/10:30pm 27.2 27.0 15.6 49 7.1 SSE 11 17 6 9 1018.3 - 0.0
25/10:00pm 27.0 26.8 15.7 50 6.9 SSE 11 15 6 8 1018.0 - 0.0
25/09:30pm 27.2 26.6 15.6 49 7.1 SSE 13 15 7 8 1017.9 - 0.0
25/09:00pm 27.6 26.9 15.3 47 7.5 SSE 13 15 7 8 1017.6 1017.4 0.0
25/08:30pm 28.0 27.6 15.3 46 7.7 S 11 13 6 7 1017.3 - 0.0
25/08:00pm 29.1 29.1 15.2 42 8.5 SSE 9 13 5 7 1016.9 - 0.0
25/07:30pm 29.2 29.6 15.3 42 8.5 SE 7 11 4 6 1016.5 - 0.0
25/07:00pm 29.9 29.9 15.2 41 9.0 SE 9 11 5 6 1016.1 - 0.0
25/06:30pm 30.6 30.9 15.1 39 9.5 SE 7 11 4 6 1015.7 - 0.0
25/06:00pm 32.0 32.1 15.5 37 10.2 SE 9 11 5 6 1015.4 1015.3 0.0
25/05:30pm 32.6 32.6 15.1 34 10.8 ESE 9 20 5 11 1015.2 - 0.0
25/05:00pm 33.0 32.2 15.0 33 11.1 ESE 13 19 7 10 1014.9 - 0.0
25/04:30pm 33.3 32.9 15.3 34 11.2 E 11 19 6 10 1014.7 - 0.0
25/04:00pm 33.5 33.0 15.0 32 11.5 E 11 20 6 11 1014.7 - 0.0
25/03:30pm 33.0 32.2 15.0 33 11.1 ESE 13 22 7 12 1014.9 - 0.0
25/03:00pm 33.4 32.7 15.4 34 11.2 E 13 17 7 9 1015.1 1015.1 0.0
25/02:30pm 32.8 32.1 15.3 34 10.9 ESE 13 20 7 11 1015.4 - 0.0
25/02:00pm 32.6 31.6 15.6 36 10.6 SSE 15 22 8 12 1015.8 - 0.0
25/01:30pm 32.7 32.6 16.1 37 10.4 SE 11 19 6 10 1016.3 - 0.0
25/01:00pm 32.0 31.6 16.3 39 9.9 ESE 13 30 7 16 1016.9 - 0.0
25/12:30pm 31.6 31.4 16.7 40 9.4 E 13 24 7 13 1017.5 - 0.0
25/12:00pm 30.5 30.1 17.2 44 8.4 E 15 24 8 13 1017.9 1017.9 0.0
25/11:30am 30.3 30.1 17.7 46 8.0 E 15 28 8 15 1018.4 - 0.0
25/11:00am 29.5 28.4 17.3 47 7.7 ENE 19 24 10 13 1018.7 - 0.0
25/10:30am 28.4 27.8 17.6 52 6.8 ESE 17 26 9 14 1019.3 - 0.0
25/10:00am 28.0 27.5 17.8 54 6.5 E 17 26 9 14 1019.3 - 0.0
25/09:30am 26.2 25.2 16.7 56 5.9 E 17 24 9 13 1019.4 - 0.0
25/09:00am 24.6 23.8 16.1 59 5.2 E 15 24 8 13 1019.3 1019.1 0.0
25/08:30am 22.9 22.5 14.2 58 5.1 SE 9 15 5 8 1019.2 - 0.0
25/08:00am 20.8 19.8 12.2 58 4.8 SSE 9 13 5 7 1019.2 - 0.0
25/07:30am 19.3 17.1 10.8 58 4.6 S 13 17 7 9 1019.2 - 0.0
25/07:00am 19.5 17.5 11.5 60 4.4 SSE 13 15 7 8 1018.9 - 0.0
25/06:30am 19.3 17.8 10.6 57 4.7 SSE 9 11 5 6 1018.7 - 0.0
25/06:00am 20.2 19.3 11.4 57 4.8 SE 7 11 4 6 1018.2 1018.0 0.0
25/05:30am 20.5 19.5 10.9 54 5.3 SE 7 11 4 6 1017.7 - 0.0
25/05:00am 20.8 19.2 10.3 51 5.7 SE 9 15 5 8 1017.6 - 0.0
25/04:30am 21.0 19.5 10.5 51 5.7 SE 9 15 5 8 1017.6 - 0.0
25/04:00am 21.1 19.4 9.7 48 6.1 SE 9 13 5 7 1017.6 - 0.0
25/03:30am 21.4 19.0 8.7 44 6.7 SSE 11 15 6 8 1017.6 - 0.0
25/03:00am 21.3 18.2 7.2 40 7.2 SSE 13 17 7 9 1017.7 1017.7 0.0
25/02:30am 21.2 18.0 6.7 39 7.4 S 13 15 7 8 1017.8 - 0.0
25/02:00am 21.4 17.8 6.9 39 7.4 SSE 15 19 8 10 1018.0 - 0.0
25/01:30am 21.8 17.9 6.9 38 7.6 SSE 17 20 9 11 1017.9 - 0.0
25/01:00am 21.6 18.5 7.1 39 7.4 S 13 15 7 8 1017.8 - 0.0
25/12:30am 21.6 18.5 7.4 40 7.3 S 13 13 7 7 1017.5 - 0.0
25/12:00am 22.3 19.4 8.1 40 7.4 SSE 13 17 7 9 1017.6 1017.6 0.0
 
Date/Time
EST
Temp
°C
App
Temp
°C
Dew
Point
Rel
Hum
%
Delta-T
°C
Wind Press
QNH
hPa
Press
MSL
hPa
Rain
since 9 am
mm
Dir
 
Spd
km/h
Gust
km/h
Spd
kts
Gust
kts
24/11:30pm 23.0 19.7 7.9 38 7.9 SSE 15 20 8 11 1017.7 - 0.0
24/11:00pm 23.4 20.2 8.3 38 8.0 S 15 17 8 9 1017.6 - 0.0
24/10:30pm 24.1 21.3 8.5 37 8.3 S 13 15 7 8 1017.4 - 0.0
24/10:00pm 24.3 22.0 9.1 38 8.2 S 11 13 6 7 1017.4 - 0.0
24/09:30pm 24.5 22.3 9.3 38 8.3 S 11 11 6 6 1017.2 - 0.0
24/09:00pm 25.4 23.3 9.7 37 8.6 S 11 13 6 7 1017.0 1016.8 0.0
24/08:30pm 25.8 23.8 10.0 37 8.8 S 11 13 6 7 1016.7 - 0.0
24/08:00pm 26.6 24.6 10.3 36 9.1 S 11 13 6 7 1016.4 - 0.0
24/07:30pm 27.0 25.2 10.7 36 9.2 SSE 11 11 6 6 1016.1 - 0.0
24/07:00pm 27.3 25.9 10.9 36 9.3 SSE 9 11 5 6 1015.8 - 0.0
24/06:30pm 28.1 27.3 11.2 35 9.7 SE 6 7 3 4 1015.6 - 0.0
24/06:00pm 30.1 29.3 11.6 32 10.7 SE 7 11 4 6 1015.2 1015.1 0.0
24/05:30pm 31.0 29.4 11.4 30 11.4 SE 11 19 6 10 1015.0 - 0.0
24/05:00pm 31.6 30.1 11.9 30 11.6 SSE 11 17 6 9 1014.6 - 0.0
24/04:30pm 31.5 29.2 11.8 30 11.5 S 15 20 8 11 1014.4 - 0.0
24/04:00pm 31.5 30.1 12.3 31 11.3 ESE 11 19 6 10 1014.4 - 0.0
24/03:30pm 31.7 30.2 12.0 30 11.6 E 11 17 6 9 1014.5 - 0.0
24/03:00pm 31.5 30.5 12.3 31 11.3 ESE 9 15 5 8 1014.6 1014.5 0.0
24/02:30pm 31.1 30.2 12.5 32 11.0 E 9 15 5 8 1014.7 - 0.0
24/02:00pm 30.7 30.3 13.0 33 10.5 E 7 20 4 11 1015.0 - 0.0
24/01:30pm 30.8 29.7 13.1 34 10.6 E 11 17 6 9 1015.4 - 0.0
24/01:00pm 29.4 28.3 13.2 37 9.6 ENE 11 20 6 11 1015.8 - 0.0
24/12:30pm 28.7 27.6 13.0 38 9.3 E 11 20 6 11 1016.3 - 0.0
24/12:00pm 28.2 26.8 13.3 40 8.8 ENE 13 22 7 12 1016.8 1016.8 0.0
24/11:30am 27.7 26.3 13.3 41 8.5 NE 13 20 7 11 1017.4 - 0.0
24/11:00am 27.3 25.7 12.9 41 8.4 ENE 13 20 7 11 1018.0 - 0.0
24/10:30am 25.8 23.5 11.9 42 8.0 ENE 15 26 8 14 1018.2 - 0.0
24/10:00am 25.6 22.6 12.1 43 7.7 E 19 26 10 14 1018.0 - 0.0
24/09:30am 24.3 21.2 11.6 45 7.2 ENE 19 24 10 13 1017.9 - 0.0
24/09:00am 22.2 19.6 9.4 44 6.9 E 13 22 7 12 1017.8 1017.6 0.0
24/08:30am 20.3 17.4 6.3 40 7.0 ESE 11 19 6 10 1017.5 - 0.0
24/08:00am 18.7 15.4 4.5 39 6.8 SE 11 17 6 9 1017.3 - 0.0
24/07:30am 17.4 13.8 3.0 38 6.6 SSE 11 19 6 10 1016.9 - 0.0
24/07:00am 16.9 12.4 2.1 37 6.6 SSE 15 19 8 10 1016.6 - 0.0
24/06:30am 16.9 12.3 1.8 36 6.7 SSE 15 20 8 11 1016.2 - 0.0
24/06:00am 17.3 12.3 1.3 34 7.1 SSE 17 24 9 13 1016.0 1015.9 0.0
24/05:30am 17.5 12.5 1.1 33 7.3 SSE 17 22 9 12 1015.9 - 0.0
24/05:00am 17.6 12.1 0.7 32 7.4 S 19 24 10 13 1015.9 - 0.0
24/04:30am 17.9 12.5 1.0 32 7.5 S 19 24 10 13 1015.8 - 0.0
24/04:00am 18.1 12.6 0.7 31 7.7 S 19 22 10 12 1015.7 - 0.0
24/03:30am 18.6 13.2 1.2 31 7.8 S 19 24 10 13 1015.8 - 0.0
24/03:00am 19.1 13.7 1.1 30 8.1 S 19 22 10 12 1015.8 1015.7 0.0
24/02:30am 19.4 13.9 0.9 29 8.3 S 19 24 10 13 1015.9 - 0.0
24/02:00am 19.7 14.3 1.2 29 8.4 S 19 24 10 13 1016.0 - 0.0
24/01:30am 19.9 14.5 1.4 29 8.4 S 19 24 10 13 1016.1 - 0.0
24/01:00am 20.2 14.9 1.6 29 8.5 S 19 24 10 13 1016.2 - 0.0
24/12:30am 20.7 15.2 2.0 29 8.6 S 20 24 11 13 1016.2 - 0.0
24/12:00am 21.2 15.9 2.0 28 8.9 S 19 24 10 13 1016.3 1016.2 0.0

Other Formats:

Comma delimited format used in spreadsheet applications
http://www.bom.gov.au/fwo/IDQ60801/IDQ60801.94266.axf

JavaScript Object Notation format (JSON) in row-major order
http://www.bom.gov.au/fwo/IDQ60801/IDQ60801.94266.json